NJE2AW SCIE-SCEL
Flight info
| Callsign | NJE2AW |
|---|---|
| Flight time | N/A |
| Altitude | 30000 |
| Route | LODOS4M LODOS UQ808 EROLO EROLO2D |
| Aircraft | B717/M-SDE3FGHIRWY/LB1 |
Departure
| Time | 2026-05-05 18:29 |
|---|---|
| Airport | Carriel Sur International Airport (SCIE) |
Arrival
| Time | N/A |
|---|---|
| Airport | Comodoro Arturo Merino Benítez International Airport (SCEL) |
| Time | Latitude | Longitude | Altitude | Speed | Heading |
|---|---|---|---|---|---|
| 2026-05-05 18:09 | -36.77610 | -73.06032 | 60 ft | 0 kts | 168° |
| 2026-05-05 18:22 | -36.77594 | -73.06036 | 54 ft | 2 kts | 168° |
| 2026-05-05 18:22 | -36.77577 | -73.06040 | 56 ft | 2 kts | 168° |
| 2026-05-05 18:23 | -36.77561 | -73.06045 | 57 ft | 2 kts | 168° |
| 2026-05-05 18:23 | -36.77548 | -73.06048 | 57 ft | 0 kts | 168° |
| 2026-05-05 18:23 | -36.77550 | -73.06048 | 57 ft | 2 kts | 168° |
| 2026-05-05 18:23 | -36.77567 | -73.06058 | 59 ft | 2 kts | 234° |
| 2026-05-05 18:24 | -36.77557 | -73.06082 | 57 ft | 5 kts | 326° |
| 2026-05-05 18:24 | -36.77518 | -73.06122 | 61 ft | 7 kts | 308° |
| 2026-05-05 18:24 | -36.77505 | -73.06184 | 61 ft | 10 kts | 266° |
| 2026-05-05 18:24 | -36.77562 | -73.06249 | 56 ft | 12 kts | 204° |
| 2026-05-05 18:25 | -36.77650 | -73.06301 | 57 ft | 17 kts | 205° |
| 2026-05-05 18:25 | -36.77719 | -73.06343 | 59 ft | 16 kts | 206° |
| 2026-05-05 18:25 | -36.77853 | -73.06420 | 57 ft | 15 kts | 205° |
| 2026-05-05 18:25 | -36.77948 | -73.06476 | 53 ft | 15 kts | 205° |
| 2026-05-05 18:26 | -36.78041 | -73.06531 | 54 ft | 15 kts | 204° |
| 2026-05-05 18:26 | -36.78136 | -73.06586 | 56 ft | 15 kts | 205° |
| 2026-05-05 18:26 | -36.78228 | -73.06641 | 61 ft | 14 kts | 207° |
| 2026-05-05 18:26 | -36.78236 | -73.06735 | 61 ft | 9 kts | 293° |
| 2026-05-05 18:27 | -36.78230 | -73.06754 | 57 ft | 0 kts | 293° |
| 2026-05-05 18:27 | -36.78218 | -73.06788 | 63 ft | 8 kts | 293° |
| 2026-05-05 18:27 | -36.78192 | -73.06841 | 66 ft | 7 kts | 327° |
| 2026-05-05 18:27 | -36.78148 | -73.06843 | 63 ft | 7 kts | 15° |
| 2026-05-05 18:28 | -36.77987 | -73.06748 | 66 ft | 21 kts | 27° |
| 2026-05-05 18:28 | -36.77696 | -73.06576 | 67 ft | 88 kts | 25° |
| 2026-05-05 18:28 | -36.76923 | -73.06121 | 279 ft | 142 kts | 25° |
| 2026-05-05 18:29 | -36.76005 | -73.05588 | 1203 ft | 151 kts | 22° |
| 2026-05-05 18:29 | -36.75036 | -73.05033 | 2194 ft | 156 kts | 19° |
| 2026-05-05 18:29 | -36.74008 | -73.04448 | 2998 ft | 170 kts | 18° |
| 2026-05-05 18:29 | -36.72867 | -73.03798 | 3676 ft | 193 kts | 18° |
| 2026-05-05 18:30 | -36.71560 | -73.03061 | 4405 ft | 219 kts | 19° |
| 2026-05-05 18:30 | -36.70138 | -73.02226 | 5314 ft | 240 kts | 25° |
| 2026-05-05 18:30 | -36.68781 | -73.00838 | 6328 ft | 262 kts | 38° |
| 2026-05-05 18:30 | -36.67532 | -72.99108 | 7376 ft | 274 kts | 44° |
| 2026-05-05 18:31 | -36.66305 | -72.97247 | 8447 ft | 281 kts | 44° |
| 2026-05-05 18:31 | -36.65077 | -72.95329 | 9562 ft | 285 kts | 44° |
| 2026-05-05 18:31 | -36.63830 | -72.93390 | 10589 ft | 288 kts | 42° |
| 2026-05-05 18:31 | -36.62523 | -72.91442 | 11383 ft | 299 kts | 40° |
| 2026-05-05 18:32 | -36.61115 | -72.89438 | 12025 ft | 316 kts | 39° |
| 2026-05-05 18:32 | -36.59610 | -72.87346 | 12680 ft | 331 kts | 39° |
| 2026-05-05 18:32 | -36.58031 | -72.85189 | 13364 ft | 344 kts | 38° |
| 2026-05-05 18:32 | -36.56383 | -72.82935 | 13925 ft | 360 kts | 39° |
| 2026-05-05 18:33 | -36.54673 | -72.80559 | 14454 ft | 374 kts | 39° |
| 2026-05-05 18:33 | -36.52929 | -72.78099 | 15089 ft | 383 kts | 40° |
| 2026-05-05 18:33 | -36.51168 | -72.75596 | 15902 ft | 385 kts | 39° |
| 2026-05-05 18:33 | -36.49393 | -72.73092 | 16766 ft | 386 kts | 39° |
| 2026-05-05 18:34 | -36.47606 | -72.70592 | 17658 ft | 387 kts | 38° |
| 2026-05-05 18:34 | -36.45813 | -72.68102 | 18524 ft | 387 kts | 38° |
| 2026-05-05 18:34 | -36.44011 | -72.65619 | 19330 ft | 387 kts | 38° |
| 2026-05-05 18:34 | -36.42177 | -72.63168 | 19990 ft | 390 kts | 34° |
| 2026-05-05 18:35 | -36.40149 | -72.60879 | 20308 ft | 399 kts | 30° |
| 2026-05-05 18:35 | -36.37998 | -72.58652 | 20807 ft | 406 kts | 30° |
| 2026-05-05 18:35 | -36.35820 | -72.56372 | 21324 ft | 415 kts | 31° |
| 2026-05-05 18:35 | -36.35111 | -72.55608 | 21398 ft | 420 kts | 31° |